Time;durP1;ratioP1;P1;durP2;ratioP2;P2;SDS_P1;SDS_P2;PMS_P1;PMS_P2;Temp;Humidity;BMP_temperature;BMP_pressure;BME280_temperature;BME280_humidity;BME280_pressure;Samples;Min_cycle;Max_cycle;Signal;HPM_P1;HPM_P2
2022/03/04 00:01:49;;;;;;;25.60;16.30;;;6.00;75.90;;;;;;6183623;23;20040;-84
2022/03/04 00:04:17;;;;;;;29.52;17.15;;;6.10;76.00;;;;;;6183756;23;20040;-84
2022/03/04 00:06:43;;;;;;;24.17;16.17;;;6.00;77.20;;;;;;6183457;23;20072;-84
2022/03/04 00:09:11;;;;;;;26.02;16.88;;;6.00;77.00;;;;;;6183308;23;20424;-84
2022/03/04 00:11:42;;;;;;;25.77;16.08;;;6.00;77.60;;;;;;6158985;23;20038;-84
2022/03/04 00:14:12;;;;;;;25.45;16.50;;;6.00;77.70;;;;;;6159120;23;20416;-84
2022/03/04 00:16:44;;;;;;;25.67;15.68;;;6.00;77.90;;;;;;6158352;23;20021;-84
2022/03/04 00:19:10;;;;;;;;;;;5.90;77.90;;;;;;6185213;23;20013;-84
2022/03/04 00:21:48;;;;;;;23.90;16.42;;;5.90;78.30;;;;;;6185558;23;19900;-84
2022/03/04 00:24:14;;;;;;;25.48;16.58;;;5.90;78.30;;;;;;6185165;23;20390;-84
2022/03/04 00:26:45;;;;;;;25.20;16.08;;;5.80;78.60;;;;;;6185317;23;20008;-84
2022/03/04 00:29:11;;;;;;;25.13;15.50;;;5.80;79.60;;;;;;6185507;23;20005;-84
2022/03/04 00:31:40;;;;;;;27.23;15.88;;;5.80;79.90;;;;;;6185857;23;20004;-84
2022/03/04 00:34:07;;;;;;;28.15;15.98;;;5.80;80.30;;;;;;6184926;23;20009;-84
2022/03/04 00:36:46;;;;;;;24.13;15.30;;;5.70;80.70;;;;;;6185352;23;20004;-84
2022/03/04 00:39:13;;;;;;;24.35;15.68;;;5.70;81.00;;;;;;6185021;23;20369;-84
2022/03/04 00:41:40;;;;;;;26.10;16.50;;;5.70;81.10;;;;;;6185597;23;20323;-84
2022/03/04 00:44:08;;;;;;;24.08;15.85;;;5.70;80.40;;;;;;6184944;23;20032;-85
2022/03/04 00:46:38;;;;;;;23.88;15.63;;;5.70;80.80;;;;;;6186393;23;20123;-85
2022/03/04 00:49:04;;;;;;;24.45;14.70;;;5.70;81.20;;;;;;6186260;23;20035;-85
2022/03/04 00:51:30;;;;;;;25.13;14.70;;;5.60;81.80;;;;;;6185391;23;20498;-84
2022/03/04 00:54:19;;;;;;;25.77;16.10;;;5.60;81.90;;;;;;6185103;23;20001;-85
2022/03/04 00:56:47;;;;;;;23.77;15.75;;;5.60;82.60;;;;;;6185344;23;19997;-85
2022/03/04 00:59:15;;;;;;;24.50;15.20;;;5.60;82.00;;;;;;6184841;23;20339;-85
2022/03/04 01:01:41;;;;;;;25.52;14.73;;;5.60;82.30;;;;;;6185164;23;19997;-85
2022/03/04 01:04:09;;;;;;;27.17;15.95;;;5.50;82.00;;;;;;6184385;23;20087;-85
2022/03/04 01:06:44;;;;;;;23.77;15.02;;;5.50;81.90;;;;;;6160251;23;20012;-87
2022/03/04 01:09:10;;;;;;;23.25;15.52;;;5.40;82.80;;;;;;6185099;23;20005;-85
2022/03/04 01:11:38;;;;;;;23.10;15.15;;;5.40;82.70;;;;;;6185342;23;20412;-85
2022/03/04 01:14:11;;;;;;;24.70;14.60;;;5.40;82.90;;;;;;6184884;23;20005;-86
2022/03/04 01:16:40;;;;;;;24.02;14.52;;;5.40;83.50;;;;;;6186109;23;20459;-85
2022/03/04 01:19:15;;;;;;;26.35;15.57;;;5.40;84.40;;;;;;6184618;23;20044;-85
2022/03/04 01:21:49;;;;;;;26.35;15.38;;;5.30;84.10;;;;;;6161390;23;20068;-84
2022/03/04 01:24:15;;;;;;;27.05;16.05;;;5.30;83.80;;;;;;6184469;23;20005;-85
2022/03/04 01:26:42;;;;;;;26.90;15.90;;;5.30;84.10;;;;;;6184900;23;20001;-85
2022/03/04 01:29:10;;;;;;;25.45;14.98;;;5.20;84.00;;;;;;6185021;23;20028;-85
2022/03/04 01:31:38;;;;;;;25.20;14.93;;;5.20;84.40;;;;;;6184675;23;19997;-86
2022/03/04 01:34:06;;;;;;;26.05;15.48;;;5.20;85.00;;;;;;6159703;23;20036;-85
2022/03/04 01:36:37;;;;;;;26.85;15.73;;;5.20;85.20;;;;;;6185620;23;20001;-84
2022/03/04 01:39:06;;;;;;;24.92;14.88;;;5.10;85.90;;;;;;6186574;23;20009;-84
2022/03/04 01:41:35;;;;;;;29.33;15.93;;;5.10;85.40;;;;;;6185097;23;20001;-85
2022/03/04 01:44:03;;;;;;;27.77;15.50;;;5.10;85.00;;;;;;6184616;23;20010;-87
2022/03/04 01:46:33;;;;;;;27.67;14.88;;;5.10;85.70;;;;;;6184825;23;20011;-85
2022/03/04 01:49:09;;;;;;;;;;;;;;;;;;;;;
2022/03/04 01:51:35;;;;;;;28.65;15.23;;;5.00;87.30;;;;;;6186140;23;20088;-84
2022/03/04 01:54:03;;;;;;;24.40;15.18;;;5.00;87.10;;;;;;6185024;23;20031;-85
2022/03/04 01:56:35;;;;;;;25.10;14.40;;;4.90;87.30;;;;;;6184866;23;20028;-85
2022/03/04 01:59:03;;;;;;;26.67;15.20;;;4.90;87.00;;;;;;6184504;23;20104;-85
2022/03/04 02:01:30;;;;;;;25.38;15.40;;;4.90;86.80;;;;;;6184197;23;20399;-85
2022/03/04 02:03:56;;;;;;;24.58;15.05;;;4.80;86.90;;;;;;6184554;23;20001;-85
2022/03/04 02:06:24;;;;;;;26.50;15.93;;;4.80;87.70;;;;;;6184253;23;20008;-85
2022/03/04 02:08:55;;;;;;;25.85;15.52;;;4.80;87.80;;;;;;6183595;23;20005;-85
2022/03/04 02:11:23;;;;;;;27.20;16.10;;;4.80;88.30;;;;;;6185597;23;20420;-84
2022/03/04 02:13:51;;;;;;;26.25;16.30;;;4.70;88.60;;;;;;6184552;23;20412;-86
2022/03/04 02:16:35;;;;;;;31.83;17.83;;;4.70;89.70;;;;;;6183864;23;20064;-85
2022/03/04 02:19:04;;;;;;;27.85;15.68;;;4.60;89.90;;;;;;6184324;23;20005;-85
2022/03/04 02:21:32;;;;;;;27.85;16.77;;;4.60;90.00;;;;;;6184202;23;20531;-85
2022/03/04 02:24:01;;;;;;;28.05;16.02;;;4.60;89.60;;;;;;6184144;23;20438;-85
2022/03/04 02:26:29;;;;;;;27.27;16.13;;;4.60;89.80;;;;;;6185418;23;19997;-86
2022/03/04 02:28:55;;;;;;;25.85;15.63;;;4.60;90.00;;;;;;6184201;23;20012;-85
2022/03/04 02:31:21;;;;;;;27.85;15.15;;;4.50;89.80;;;;;;6185729;23;20001;-85
2022/03/04 02:33:48;;;;;;;25.40;14.13;;;4.50;90.00;;;;;;6184312;23;20001;-85
2022/03/04 02:36:14;;;;;;;25.60;15.05;;;4.50;90.40;;;;;;6184194;23;20045;-85
2022/03/04 02:38:42;;;;;;;26.33;15.07;;;4.50;91.30;;;;;;6185917;23;20328;-86
2022/03/04 02:41:10;;;;;;;23.65;14.85;;;4.40;91.10;;;;;;6183819;23;20324;-86
2022/03/04 02:43:36;;;;;;;26.92;14.48;;;4.40;90.90;;;;;;6186104;23;20017;-85
2022/03/04 02:46:03;;;;;;;23.35;14.50;;;4.40;91.00;;;;;;6184670;23;20016;-85
2022/03/04 02:48:48;;;;;;;26.08;14.77;;;4.40;91.40;;;;;;6183870;23;20442;-85
2022/03/04 02:51:17;;;;;;;26.95;15.07;;;4.40;91.30;;;;;;6139376;23;20013;-86
2022/03/04 02:53:42;;;;;;;25.40;14.88;;;4.30;91.50;;;;;;6159725;23;20397;-86
2022/03/04 02:56:11;;;;;;;25.88;15.07;;;4.30;91.70;;;;;;6183957;23;20004;-89
2022/03/04 02:58:39;;;;;;;28.33;15.85;;;4.30;91.50;;;;;;6183960;23;20059;-86
2022/03/04 03:01:10;;;;;;;25.15;14.63;;;4.30;91.70;;;;;;6158887;23;20006;-85
2022/03/04 03:03:36;;;;;;;29.77;15.65;;;4.30;92.00;;;;;;6185681;23;20001;-85
2022/03/04 03:06:06;;;;;;;27.20;15.27;;;4.20;92.30;;;;;;6184178;23;20044;-85
2022/03/04 03:08:32;;;;;;;24.98;14.43;;;4.20;92.40;;;;;;6183567;23;20009;-85
2022/03/04 03:10:58;;;;;;;25.77;13.75;;;4.20;92.10;;;;;;6183986;23;20052;-85
2022/03/04 03:13:26;;;;;;;25.90;14.90;;;4.20;92.50;;;;;;6183848;23;20016;-86
2022/03/04 03:15:52;;;;;;;25.42;14.55;;;4.20;92.80;;;;;;6183695;23;20039;-85
2022/03/04 03:18:18;;;;;;;26.42;14.43;;;4.20;93.10;;;;;;6134281;23;20103;-86
2022/03/04 03:20:51;;;;;;;22.02;13.70;;;4.10;93.50;;;;;;6183829;23;20059;-85
2022/03/04 03:23:17;;;;;;;25.80;14.45;;;4.10;93.50;;;;;;6183712;23;20001;-85
2022/03/04 03:25:46;;;;;;;27.23;15.68;;;4.10;93.30;;;;;;6183652;23;20007;-85
2022/03/04 03:28:27;;;;;;;;;;;;;;;;;;;;;
2022/03/04 03:31:01;;;;;;;25.75;14.45;;;4.00;93.60;;;;;;6183961;23;20104;-85
2022/03/04 03:33:36;;;;;;;23.40;14.27;;;4.00;93.60;;;;;;6183302;23;20088;-85
2022/03/04 03:36:14;;;;;;;24.58;13.32;;;4.00;93.60;;;;;;6184037;23;20009;-85
2022/03/04 03:38:40;;;;;;;24.33;13.73;;;4.00;93.80;;;;;;6183900;23;20033;-86
2022/03/04 03:41:09;;;;;;;27.35;14.50;;;4.00;94.10;;;;;;6183686;23;20004;-85
2022/03/04 03:43:35;;;;;;;24.73;14.20;;;3.90;94.40;;;;;;6159002;23;20041;-85
2022/03/04 03:46:05;;;;;;;26.45;14.52;;;3.90;94.30;;;;;;6183952;23;20412;-85
2022/03/04 03:48:31;;;;;;;26.25;15.57;;;3.90;94.30;;;;;;6184029;23;20005;-85
2022/03/04 03:50:57;;;;;;;24.38;14.00;;;3.90;94.50;;;;;;6184420;23;20005;-85
2022/03/04 03:53:23;;;;;;;23.85;13.40;;;3.90;94.70;;;;;;6184864;23;20024;-85
2022/03/04 03:55:49;;;;;;;24.23;13.90;;;3.80;94.70;;;;;;6186076;23;20486;-85
2022/03/04 03:58:19;;;;;;;26.15;14.70;;;3.80;94.90;;;;;;6185809;23;20048;-85
2022/03/04 04:00:55;;;;;;;;;;;;;;;;;;;;;
2022/03/04 04:03:24;;;;;;;27.58;14.82;;;3.80;95.70;;;;;;6186812;23;20075;-85
2022/03/04 04:08:36;;;;;;;22.63;12.88;;;3.70;95.60;;;;;;6187162;23;20016;-86
2022/03/04 04:11:02;;;;;;;24.70;14.63;;;3.70;95.70;;;;;;6185583;23;19997;-85
2022/03/04 04:13:30;;;;;;;29.50;13.55;;;3.70;96.10;;;;;;6185432;23;20005;-85
2022/03/04 04:16:08;;;;;;;24.65;14.07;;;3.70;96.10;;;;;;6160858;23;20140;-85
2022/03/04 04:18:36;;;;;;;23.98;14.05;;;3.70;96.30;;;;;;6161962;23;20013;-85
2022/03/04 04:21:03;;;;;;;28.48;14.52;;;3.70;96.50;;;;;;6185299;23;20442;-85
2022/03/04 04:23:36;;;;;;;24.65;13.15;;;3.70;96.50;;;;;;6185287;23;20028;-85
2022/03/04 04:26:05;;;;;;;24.58;13.35;;;3.60;96.60;;;;;;6161837;23;20001;-85
2022/03/04 04:28:34;;;;;;;24.58;14.68;;;3.60;96.60;;;;;;6185206;23;20001;-85
2022/03/04 04:31:02;;;;;;;24.60;14.23;;;3.60;96.70;;;;;;6185574;23;20467;-85
2022/03/04 04:33:31;;;;;;;23.65;13.25;;;3.60;96.70;;;;;;6161190;23;20110;-85
2022/03/04 04:36:00;;;;;;;23.90;13.98;;;3.50;96.80;;;;;;6185623;23;20051;-85
2022/03/04 04:38:25;;;;;;;23.77;13.52;;;3.50;97.20;;;;;;6185468;23;20005;-85
2022/03/04 04:40:54;;;;;;;24.80;14.00;;;3.50;97.60;;;;;;6161031;23;20005;-85
2022/03/04 04:43:23;;;;;;;26.27;15.20;;;3.50;97.60;;;;;;6185776;23;20001;-85
2022/03/04 04:45:54;;;;;;;22.85;13.25;;;3.50;97.60;;;;;;6160859;23;20067;-85
2022/03/04 04:48:22;;;;;;;24.25;14.15;;;3.50;97.90;;;;;;6185283;23;20514;-87
2022/03/04 04:50:50;;;;;;;25.73;14.73;;;3.40;97.90;;;;;;6185011;23;19997;-85
2022/03/04 04:53:23;;;;;;;26.98;15.07;;;3.40;98.00;;;;;;6161400;23;20297;-86
2022/03/04 04:55:52;;;;;;;26.58;14.48;;;3.40;98.10;;;;;;6185746;23;20001;-85
2022/03/04 04:58:22;;;;;;;23.38;13.20;;;3.40;98.10;;;;;;6184891;23;20439;-85
2022/03/04 05:00:53;;;;;;;23.95;13.85;;;3.30;98.50;;;;;;6185115;23;20005;-85
2022/03/04 05:03:29;;;;;;;24.63;13.48;;;3.30;98.50;;;;;;6159499;23;20020;-85
2022/03/04 05:05:59;;;;;;;25.25;14.15;;;3.30;98.60;;;;;;6184862;23;20013;-85
2022/03/04 05:08:26;;;;;;;32.08;14.85;;;3.30;98.80;;;;;;6184850;23;20010;-88
2022/03/04 05:10:57;;;;;;;24.90;13.35;;;3.30;99.10;;;;;;6184740;23;20020;-85
2022/03/04 05:13:26;;;;;;;26.50;14.50;;;3.30;99.10;;;;;;6186524;23;20060;-85
2022/03/04 05:16:22;;;;;;;24.63;13.98;;;3.20;99.40;;;;;;6186468;23;20063;-85
2022/03/04 05:18:47;;;;;;;27.17;13.80;;;3.20;99.70;;;;;;6184717;23;20009;-86
2022/03/04 05:21:18;;;;;;;27.20;13.98;;;3.20;99.60;;;;;;6160306;23;20016;-86
2022/03/04 05:24:00;;;;;;;27.85;14.30;;;3.20;99.70;;;;;;6184938;23;20007;-86
2022/03/04 05:26:31;;;;;;;25.08;13.55;;;3.10;99.70;;;;;;6186386;23;19998;-87
2022/03/04 05:28:58;;;;;;;25.58;13.73;;;3.10;99.90;;;;;;6184936;23;20012;-86
2022/03/04 05:31:33;;;;;;;25.80;13.48;;;3.10;99.90;;;;;;6185223;23;20055;-86
2022/03/04 05:33:59;;;;;;;27.13;14.25;;;3.10;99.90;;;;;;6162165;23;20072;-85
2022/03/04 05:36:26;;;;;;;25.55;13.65;;;3.10;99.90;;;;;;6184837;23;20009;-86
2022/03/04 05:38:54;;;;;;;25.50;14.23;;;3.10;99.90;;;;;;6184403;23;20004;-86
2022/03/04 05:41:46;;;;;;;27.50;14.15;;;3.00;99.90;;;;;;6184498;23;20095;-86
2022/03/04 05:44:12;;;;;;;25.42;13.75;;;3.00;99.90;;;;;;6184952;23;20005;-84
2022/03/04 05:46:52;;;;;;;26.38;14.35;;;3.00;99.90;;;;;;6184195;23;20009;-85
2022/03/04 05:49:28;;;;;;;23.90;14.32;;;2.90;99.90;;;;;;6139848;23;20009;-84
2022/03/04 05:51:57;;;;;;;28.00;14.48;;;2.90;99.90;;;;;;6184139;23;20080;-85
2022/03/04 05:54:24;;;;;;;24.90;13.95;;;2.90;99.90;;;;;;6159906;23;20005;-85
2022/03/04 05:56:50;;;;;;;26.42;14.50;;;2.90;99.90;;;;;;6186084;23;20008;-85
2022/03/04 05:59:18;;;;;;;26.58;15.02;;;2.90;99.90;;;;;;6184517;23;20005;-85
2022/03/04 06:01:46;;;;;;;29.23;15.88;;;2.80;99.90;;;;;;6185121;23;20147;-85
2022/03/04 06:04:14;;;;;;;26.52;14.50;;;2.80;99.90;;;;;;6160695;23;20005;-85
2022/03/04 06:06:43;;;;;;;25.13;13.85;;;2.80;99.90;;;;;;6184162;23;19997;-85
2022/03/04 06:09:12;;;;;;;25.38;14.32;;;2.80;99.90;;;;;;6185336;23;20001;-85
2022/03/04 06:11:40;;;;;;;26.15;14.20;;;2.70;99.90;;;;;;6159428;23;20013;-87
2022/03/04 06:14:11;;;;;;;26.30;14.57;;;2.80;99.90;;;;;;6182578;23;20439;-86
2022/03/04 06:16:40;;;;;;;24.92;14.10;;;2.70;99.90;;;;;;6134803;23;20104;-85
2022/03/04 06:19:08;;;;;;;27.38;14.63;;;2.70;99.90;;;;;;6159299;23;20064;-86
2022/03/04 06:21:36;;;;;;;27.02;15.40;;;2.70;99.90;;;;;;6183314;23;20031;-86
2022/03/04 06:24:05;;;;;;;25.35;14.18;;;2.70;99.90;;;;;;6183822;23;20016;-84
2022/03/04 06:26:39;;;;;;;27.17;14.65;;;2.60;99.90;;;;;;6158236;23;20009;-85
2022/03/04 06:29:05;;;;;;;29.77;15.50;;;2.60;99.90;;;;;;6183764;23;20001;-85
2022/03/04 06:31:37;;;;;;;26.00;14.93;;;2.60;99.90;;;;;;6158270;23;20005;-85
2022/03/04 06:34:11;;;;;;;28.58;15.13;;;2.50;99.90;;;;;;6158445;23;20079;-87
2022/03/04 06:36:38;;;;;;;28.13;14.98;;;2.50;99.90;;;;;;6158733;23;20068;-85
2022/03/04 06:39:07;;;;;;;31.30;16.40;;;2.50;99.90;;;;;;6183705;23;20160;-84
2022/03/04 06:41:48;;;;;;;;;;;;;;;;;;;;;
2022/03/04 06:44:17;;;;;;;29.88;15.63;;;2.50;99.90;;;;;;6185398;23;20499;-85
2022/03/04 06:46:52;;;;;;;29.75;14.80;;;2.40;99.90;;;;;;6183869;23;19997;-86
2022/03/04 06:49:27;;;;;;;32.03;16.13;;;2.40;99.90;;;;;;6159637;23;20012;-85
2022/03/04 06:52:03;;;;;;;26.92;14.68;;;2.40;99.90;;;;;;6183441;23;19997;-86
2022/03/04 06:54:49;;;;;;;31.13;15.90;;;2.40;99.90;;;;;;6183846;23;20420;-86
2022/03/04 06:57:19;;;;;;;28.13;15.15;;;2.30;99.90;;;;;;6184168;23;20301;-85
2022/03/04 06:59:49;;;;;;;27.50;14.68;;;2.30;99.90;;;;;;6183493;23;20012;-86
2022/03/04 07:02:22;;;;;;;29.80;16.00;;;2.30;99.90;;;;;;6159225;23;20411;-86
2022/03/04 07:04:50;;;;;;;28.92;15.20;;;2.30;99.90;;;;;;6159607;23;20057;-86
2022/03/04 07:07:20;;;;;;;27.10;15.20;;;2.30;99.90;;;;;;6184943;23;20031;-85
2022/03/04 07:09:46;;;;;;;28.17;14.90;;;2.30;99.90;;;;;;6180879;23;20039;-85
2022/03/04 07:12:23;;;;;;;28.63;16.70;;;2.30;99.90;;;;;;6182447;23;20005;-86
2022/03/04 07:14:55;;;;;;;27.45;14.07;;;2.30;99.90;;;;;;6159028;23;20084;-86
2022/03/04 07:17:39;;;;;;;25.95;14.93;;;2.30;99.90;;;;;;6159059;23;20017;-85
2022/03/04 07:20:08;;;;;;;25.23;14.40;;;2.30;99.90;;;;;;6182812;23;20013;-87
2022/03/04 07:22:38;;;;;;;25.67;13.85;;;2.30;99.90;;;;;;6182652;23;20008;-86
2022/03/04 07:25:13;;;;;;;28.90;14.68;;;2.30;99.90;;;;;;6183297;23;20009;-86
2022/03/04 07:27:44;;;;;;;23.70;13.63;;;2.40;99.90;;;;;;6183455;23;20096;-85
2022/03/04 07:30:17;;;;;;;28.52;15.20;;;2.30;99.90;;;;;;6184085;23;20045;-85
2022/03/04 07:32:49;;;;;;;28.50;13.95;;;2.30;99.90;;;;;;6184562;23;20047;-86
2022/03/04 07:35:19;;;;;;;31.75;16.90;;;2.30;99.90;;;;;;6183536;23;20515;-86
2022/03/04 07:37:55;;;;;;;27.83;14.65;;;2.40;99.90;;;;;;6183632;23;20006;-86
2022/03/04 07:40:23;;;;;;;23.23;13.77;;;2.40;99.90;;;;;;6160724;23;20366;-86
2022/03/04 07:42:49;;;;;;;28.48;15.07;;;2.40;99.90;;;;;;6183606;23;20367;-83
2022/03/04 07:45:15;;;;;;;26.95;14.23;;;2.40;99.90;;;;;;6183607;23;20005;-84
2022/03/04 07:47:44;;;;;;;28.88;14.35;;;2.50;99.90;;;;;;6183788;23;20001;-84
2022/03/04 07:50:14;;;;;;;32.75;14.43;;;2.50;99.90;;;;;;6159095;23;20011;-85
2022/03/04 07:52:41;;;;;;;26.30;14.07;;;2.50;99.90;;;;;;6159048;23;20001;-84
2022/03/04 07:55:17;;;;;;;28.73;14.77;;;2.50;99.90;;;;;;6185075;23;19997;-84
2022/03/04 07:57:44;;;;;;;27.40;15.05;;;2.60;99.90;;;;;;6183670;23;20432;-87
2022/03/04 08:00:13;;;;;;;28.48;15.50;;;2.60;99.90;;;;;;6183766;23;20008;-81
2022/03/04 08:02:50;;;;;;;;;;;;;;;;;;;;;
2022/03/04 08:05:16;;;;;;;26.25;14.48;;;2.60;99.90;;;;;;6184874;23;20084;-82
2022/03/04 08:07:42;;;;;;;29.10;15.63;;;2.70;99.90;;;;;;6183899;23;20035;-83
2022/03/04 08:10:10;;;;;;;24.13;13.75;;;2.70;99.90;;;;;;6183257;23;20008;-82
2022/03/04 08:12:36;;;;;;;26.42;15.02;;;2.70;99.90;;;;;;6183718;23;20076;-82
2022/03/04 08:15:06;;;;;;;30.45;16.27;;;2.80;99.90;;;;;;6183276;23;20001;-82
2022/03/04 08:17:31;;;;;;;27.05;14.63;;;2.80;99.90;;;;;;6185021;23;20036;-83
2022/03/04 08:20:00;;;;;;;29.58;16.00;;;2.80;99.90;;;;;;6158469;23;20005;-82
2022/03/04 08:22:26;;;;;;;27.75;15.57;;;2.80;99.90;;;;;;6183495;23;20001;-83
2022/03/04 08:25:01;;;;;;;27.58;15.93;;;2.90;99.90;;;;;;6183327;23;20008;-83
2022/03/04 08:27:27;;;;;;;25.95;15.20;;;2.90;99.90;;;;;;6183554;23;20372;-83
2022/03/04 08:29:55;;;;;;;27.55;15.88;;;3.00;99.90;;;;;;6183301;23;19997;-83
2022/03/04 08:32:24;;;;;;;27.02;15.90;;;3.00;99.90;;;;;;6183549;23;20016;-83
2022/03/04 08:34:50;;;;;;;27.60;15.02;;;3.10;99.90;;;;;;6158748;23;20005;-84
2022/03/04 08:37:21;;;;;;;27.02;15.48;;;3.10;99.90;;;;;;6183436;23;20039;-83
2022/03/04 08:39:47;;;;;;;;;;;3.10;99.90;;;;;;6184789;23;20028;-83
2022/03/04 08:42:12;;;;;;;28.35;16.25;;;3.20;99.90;;;;;;6185249;23;20240;-83
2022/03/04 08:44:45;;;;;;;27.92;15.45;;;3.30;99.90;;;;;;6186921;23;20001;-83
2022/03/04 08:47:11;;;;;;;34.88;17.02;;;3.30;99.90;;;;;;6185299;23;20089;-83
2022/03/04 08:49:40;;;;;;;29.02;15.98;;;3.40;99.90;;;;;;6185255;23;20033;-82
2022/03/04 08:52:06;;;;;;;27.55;15.57;;;3.40;99.90;;;;;;6184847;23;20001;-83
2022/03/04 08:54:34;;;;;;;30.23;15.73;;;3.50;99.90;;;;;;6185182;23;20016;-83
2022/03/04 08:57:02;;;;;;;26.40;15.55;;;3.50;99.90;;;;;;6160530;23;20005;-83
2022/03/04 08:59:31;;;;;;;26.35;15.73;;;3.60;99.90;;;;;;6186867;23;20408;-84
2022/03/04 09:01:56;;;;;;;28.08;15.68;;;3.70;99.90;;;;;;6184805;23;20001;-84
2022/03/04 09:04:32;;;;;;;27.70;15.98;;;3.70;99.90;;;;;;6185002;23;20327;-82
2022/03/04 09:07:08;;;;;;;;;;;;;;;;;;;;;
2022/03/04 09:09:38;;;;;;;27.65;16.02;;;3.90;99.90;;;;;;6186364;23;20076;-83
2022/03/04 09:12:07;;;;;;;24.88;14.38;;;3.90;99.90;;;;;;6184737;23;20060;-82
2022/03/04 09:14:35;;;;;;;27.10;15.68;;;4.00;99.90;;;;;;6185111;23;19997;-83
2022/03/04 09:17:02;;;;;;;27.63;16.40;;;4.10;99.90;;;;;;6184568;23;20064;-82
2022/03/04 09:19:30;;;;;;;26.77;15.73;;;4.20;99.90;;;;;;6185199;23;20041;-83
2022/03/04 09:21:56;;;;;;;27.63;16.35;;;4.30;99.90;;;;;;6136203;23;20005;-83
2022/03/04 09:24:24;;;;;;;31.60;17.70;;;4.30;99.90;;;;;;6184700;23;20404;-83
2022/03/04 09:26:50;;;;;;;25.67;14.93;;;4.40;99.90;;;;;;6182751;23;20000;-83
2022/03/04 09:29:18;;;;;;;26.35;15.27;;;4.40;99.90;;;;;;6184477;23;20447;-83
2022/03/04 09:31:51;;;;;;;29.65;16.55;;;4.50;99.90;;;;;;6183552;23;20602;-83
2022/03/04 09:34:19;;;;;;;28.45;16.45;;;4.60;99.90;;;;;;6185137;23;19997;-83
2022/03/04 09:36:47;;;;;;;28.20;15.18;;;4.70;99.90;;;;;;6160104;23;20001;-83
2022/03/04 09:39:16;;;;;;;25.95;15.13;;;4.70;99.90;;;;;;6184301;23;20009;-86
2022/03/04 09:41:52;;;;;;;32.97;16.58;;;4.80;99.90;;;;;;6184917;23;20005;-84
2022/03/04 09:44:27;;;;;;;28.85;15.20;;;5.00;99.90;;;;;;6183909;23;20092;-83
2022/03/04 09:46:56;;;;;;;26.83;16.15;;;5.00;99.90;;;;;;6184305;23;20001;-84
2022/03/04 09:49:26;;;;;;;29.00;15.75;;;5.10;99.90;;;;;;6184455;23;20001;-84
2022/03/04 09:51:56;;;;;;;26.20;15.90;;;5.20;99.90;;;;;;6184536;23;20047;-84
2022/03/04 09:54:27;;;;;;;26.90;15.35;;;5.30;99.90;;;;;;6184774;23;20005;-83
2022/03/04 09:56:55;;;;;;;27.83;16.98;;;5.40;99.90;;;;;;6184696;23;20068;-84
2022/03/04 09:59:43;;;;;;;;;;;;;;;;;;;;;
2022/03/04 10:02:13;;;;;;;24.10;14.88;;;5.60;99.90;;;;;;6185329;23;20080;-84
2022/03/04 10:04:40;;;;;;;25.00;15.20;;;5.70;99.90;;;;;;6184450;23;19997;-84
2022/03/04 10:07:18;;;;;;;26.13;15.77;;;5.80;99.90;;;;;;6184132;23;20033;-83
2022/03/04 10:09:48;;;;;;;24.60;14.75;;;6.00;99.90;;;;;;6184602;23;20032;-83
2022/03/04 10:12:16;;;;;;;27.17;16.35;;;6.10;99.90;;;;;;6159689;23;20001;-83
2022/03/04 10:15:07;;;;;;;29.80;18.40;;;6.20;99.90;;;;;;6184002;23;20001;-84
2022/03/04 10:17:39;;;;;;;29.30;17.02;;;6.30;99.90;;;;;;6184129;23;20036;-83
2022/03/04 10:20:16;;;;;;;27.77;16.20;;;6.40;99.90;;;;;;6183939;23;20411;-83
2022/03/04 10:22:45;;;;;;;26.50;15.77;;;6.50;99.90;;;;;;6184411;23;20005;-83
2022/03/04 10:25:14;;;;;;;27.75;16.10;;;6.70;99.90;;;;;;6159589;23;20040;-83
2022/03/04 10:27:39;;;;;;;27.98;15.00;;;6.80;99.90;;;;;;6184180;23;20012;-83
2022/03/04 10:30:06;;;;;;;25.45;16.35;;;6.90;99.60;;;;;;6183803;23;20123;-84
2022/03/04 10:32:35;;;;;;;26.48;15.93;;;7.00;98.80;;;;;;6184088;23;20001;-83
2022/03/04 10:35:08;;;;;;;28.92;15.60;;;7.10;98.70;;;;;;6183800;23;20447;-84
2022/03/04 10:37:56;;;;;;;29.63;15.90;;;7.20;98.60;;;;;;6185709;23;20498;-83
2022/03/04 10:40:23;;;;;;;23.63;14.82;;;7.30;98.70;;;;;;6185606;23;20012;-83
2022/03/04 10:42:49;;;;;;;27.23;16.05;;;7.50;98.60;;;;;;6159495;23;20009;-83
2022/03/04 10:45:27;;;;;;;25.27;16.10;;;7.60;97.50;;;;;;6182815;23;20335;-83
2022/03/04 10:48:03;;;;;;;26.77;15.95;;;7.70;96.40;;;;;;6185444;23;20014;-83
2022/03/04 10:50:51;;;;;;;26.38;15.40;;;7.80;96.20;;;;;;6184028;23;20097;-82
2022/03/04 10:53:19;;;;;;;26.38;15.60;;;7.90;95.50;;;;;;6182501;23;20001;-83
2022/03/04 10:55:51;;;;;;;25.92;15.25;;;8.10;95.30;;;;;;6183860;23;20339;-83
2022/03/04 10:58:19;;;;;;;26.05;14.88;;;8.20;95.30;;;;;;6183706;23;20012;-83
2022/03/04 11:01:15;;;;;;;24.85;16.23;;;8.30;94.80;;;;;;6183569;23;20092;-83
2022/03/04 11:03:41;;;;;;;23.70;15.15;;;8.50;94.40;;;;;;6183930;23;20001;-84
2022/03/04 11:06:12;;;;;;;27.60;16.35;;;8.60;94.10;;;;;;6183716;23;20001;-83
2022/03/04 11:08:39;;;;;;;25.45;15.57;;;8.70;92.70;;;;;;6183882;23;20015;-83
2022/03/04 11:11:07;;;;;;;24.90;16.35;;;8.70;92.90;;;;;;6183299;23;20427;-81
2022/03/04 11:13:35;;;;;;;25.40;15.43;;;8.90;92.80;;;;;;6159548;23;20005;-82
2022/03/04 11:16:04;;;;;;;27.05;15.60;;;9.00;92.60;;;;;;6182958;23;20032;-83
2022/03/04 11:18:33;;;;;;;26.70;16.15;;;9.10;92.20;;;;;;6183968;23;20010;-83
2022/03/04 11:21:01;;;;;;;24.42;16.27;;;9.20;91.80;;;;;;6185551;23;20501;-83
2022/03/04 11:23:30;;;;;;;26.45;16.50;;;9.30;90.70;;;;;;6134515;23;20096;-82
2022/03/04 11:26:09;;;;;;;26.15;15.95;;;9.50;90.80;;;;;;6183659;23;20031;-83
2022/03/04 11:28:36;;;;;;;27.77;16.50;;;9.50;90.40;;;;;;6183284;23;20419;-83
2022/03/04 11:31:06;;;;;;;26.30;15.93;;;9.60;90.60;;;;;;6185118;23;19997;-83
2022/03/04 11:33:41;;;;;;;26.15;16.23;;;9.80;90.40;;;;;;6159160;23;20005;-83
2022/03/04 11:36:16;;;;;;;24.83;16.48;;;9.90;89.70;;;;;;6159358;23;20420;-82
2022/03/04 11:38:47;;;;;;;22.95;16.08;;;10.00;88.50;;;;;;6181827;23;20679;-83
2022/03/04 11:41:42;;;;;;;;;;;;;;;;;;;;;
2022/03/04 11:44:20;;;;;;;26.73;17.15;;;10.20;86.20;;;;;;6184572;23;20084;-83
2022/03/04 11:46:52;;;;;;;22.83;15.48;;;10.30;86.20;;;;;;6185155;23;20076;-83
2022/03/04 11:49:38;;;;;;;23.65;15.65;;;10.40;86.30;;;;;;6184480;23;20339;-84
2022/03/04 11:52:11;;;;;;;22.77;15.25;;;10.50;85.60;;;;;;6183548;23;20001;-83
2022/03/04 11:54:46;;;;;;;25.88;17.55;;;10.60;84.50;;;;;;6183506;23;20001;-84
2022/03/04 11:57:25;;;;;;;25.23;17.08;;;10.70;83.60;;;;;;6184823;23;20073;-83
2022/03/04 11:59:58;;;;;;;22.80;15.48;;;10.80;81.90;;;;;;6158519;23;20016;-84
2022/03/04 12:02:34;;;;;;;23.75;15.90;;;10.90;81.30;;;;;;6183258;23;20096;-83
2022/03/04 12:05:30;;;;;;;27.80;17.10;;;11.00;81.80;;;;;;6183398;23;20008;-83
2022/03/04 12:07:55;;;;;;;25.45;16.10;;;11.00;80.80;;;;;;6183323;23;20064;-82
2022/03/04 12:10:37;;;;;;;25.73;16.17;;;11.20;81.80;;;;;;6183264;23;20009;-83
2022/03/04 12:13:23;;;;;;;26.27;17.27;;;11.20;79.50;;;;;;6184043;23;20032;-83
2022/03/04 12:15:59;;;;;;;27.20;17.27;;;11.30;79.90;;;;;;6183821;23;20007;-83
2022/03/04 12:18:43;;;;;;;28.67;17.20;;;11.50;78.90;;;;;;6184733;23;20044;-83
2022/03/04 12:21:24;;;;;;;24.02;15.45;;;11.60;79.80;;;;;;6186183;23;20424;-84
2022/03/04 12:24:02;;;;;;;22.17;15.32;;;11.70;77.90;;;;;;6185357;23;19998;-83
2022/03/04 12:26:39;;;;;;;24.65;16.50;;;11.80;78.50;;;;;;6184997;23;20030;-83
2022/03/04 12:29:18;;;;;;;24.45;16.25;;;11.90;77.80;;;;;;6185198;23;20008;-83
2022/03/04 12:31:58;;;;;;;23.58;16.48;;;12.00;76.70;;;;;;6184107;23;20001;-83
2022/03/04 12:34:36;;;;;;;23.95;15.98;;;12.10;76.80;;;;;;6184688;23;20179;-83
2022/03/04 12:37:06;;;;;;;24.13;17.05;;;12.20;75.80;;;;;;6139228;23;20009;-82
2022/03/04 12:39:38;;;;;;;22.83;15.65;;;12.30;74.00;;;;;;6184745;23;20092;-83
2022/03/04 12:42:16;;;;;;;21.75;15.85;;;12.40;74.60;;;;;;6185158;23;20005;-83
2022/03/04 12:45:09;;;;;;;22.95;15.40;;;12.50;72.50;;;;;;6184865;23;20372;-83
2022/03/04 12:47:40;;;;;;;24.60;16.02;;;12.50;71.00;;;;;;6171742;23;20092;-83
2022/03/04 12:50:06;;;;;;;19.98;14.60;;;12.60;70.00;;;;;;6186365;23;20378;-82
2022/03/04 12:52:34;;;;;;;21.45;14.43;;;12.60;69.30;;;;;;6184434;23;20424;-82
2022/03/04 12:55:06;;;;;;;22.52;15.38;;;12.60;70.40;;;;;;6184862;23;20004;-83
2022/03/04 12:57:51;;;;;;;21.02;14.55;;;12.70;71.20;;;;;;6158894;23;20335;-83
2022/03/04 13:00:25;;;;;;;19.40;13.00;;;12.80;69.40;;;;;;6182822;23;20328;-83
2022/03/04 13:02:53;;;;;;;22.05;13.80;;;12.90;68.10;;;;;;6185307;23;19997;-84
2022/03/04 13:05:29;;;;;;;;;;;;;;;;;;;;;
2022/03/04 13:07:58;;;;;;;20.80;13.80;;;13.10;66.40;;;;;;6186509;23;20104;-83